createdAt,value
2018-02-10T00:02:22.656Z,98.00
2018-02-10T00:04:50.241Z,98.10
2018-02-10T00:07:17.833Z,98.10
2018-02-10T00:09:45.381Z,98.30
2018-02-10T00:12:12.978Z,98.00
2018-02-10T00:14:40.570Z,98.00
2018-02-10T00:17:08.630Z,97.60
2018-02-10T00:19:36.581Z,97.60
2018-02-10T00:22:04.202Z,97.60
2018-02-10T00:24:31.744Z,98.10
2018-02-10T00:26:59.369Z,98.40
2018-02-10T00:29:27.992Z,98.50
2018-02-10T00:31:55.636Z,98.40
2018-02-10T00:34:23.615Z,97.20
2018-02-10T00:36:51.612Z,97.00
2018-02-10T00:39:19.173Z,97.00
2018-02-10T00:41:46.777Z,96.80
2018-02-10T00:44:14.389Z,96.10
2018-02-10T00:46:42.058Z,95.60
2018-02-10T00:49:09.610Z,95.20
2018-02-10T00:51:37.180Z,95.20
2018-02-10T00:54:04.755Z,94.40
2018-02-10T00:56:32.405Z,94.20
2018-02-10T00:58:59.989Z,94.10
2018-02-10T01:01:27.589Z,93.40
2018-02-10T01:03:55.136Z,93.00
2018-02-10T01:06:23.137Z,93.00
2018-02-10T01:08:50.703Z,93.00
2018-02-10T01:11:18.313Z,93.20
2018-02-10T01:13:45.917Z,93.40
2018-02-10T01:16:13.527Z,93.60
2018-02-10T01:18:41.082Z,93.60
2018-02-10T01:21:08.662Z,93.40
2018-02-10T01:23:36.970Z,93.20
2018-02-10T01:26:04.640Z,93.00
2018-02-10T01:28:32.248Z,92.70
2018-02-10T01:30:59.792Z,92.30
2018-02-10T01:33:27.399Z,92.50
2018-02-10T01:35:55.009Z,92.60
2018-02-10T01:38:22.564Z,92.70
2018-02-10T01:40:50.152Z,92.70
2018-02-10T01:43:17.751Z,92.50
2018-02-10T01:45:45.301Z,92.30
2018-02-10T01:48:12.907Z,92.40
2018-02-10T01:50:40.436Z,92.50
2018-02-10T01:53:08.005Z,92.70
2018-02-10T01:55:35.620Z,93.00
2018-02-10T01:58:03.209Z,93.10
2018-02-10T02:00:30.815Z,93.20
2018-02-10T02:02:58.412Z,93.10
2018-02-10T02:05:26.352Z,93.30
2018-02-10T02:07:53.911Z,93.30
2018-02-10T02:10:22.300Z,92.80
2018-02-10T02:12:49.992Z,92.80
2018-02-10T02:15:17.644Z,92.80
2018-02-10T02:17:45.622Z,93.00
2018-02-10T02:20:13.582Z,93.00
2018-02-10T02:22:41.191Z,93.00
2018-02-10T02:25:08.768Z,93.00
2018-02-10T02:27:36.360Z,93.00
2018-02-10T02:30:04.353Z,92.80
2018-02-10T02:32:31.935Z,92.80
2018-02-10T02:34:59.572Z,92.80
2018-02-10T02:37:27.124Z,92.70
2018-02-10T02:39:54.720Z,92.80
2018-02-10T02:42:22.309Z,92.90
2018-02-10T02:44:49.897Z,93.00
2018-02-10T02:47:17.428Z,93.20
2018-02-10T02:49:45.009Z,93.20
2018-02-10T02:52:12.984Z,93.10
2018-02-10T02:54:40.566Z,93.10
2018-02-10T02:57:09.036Z,93.40
2018-02-10T02:59:36.623Z,93.70
2018-02-10T03:02:04.205Z,93.80
2018-02-10T03:04:31.842Z,93.80
2018-02-10T03:06:59.461Z,93.70
2018-02-10T03:09:27.083Z,93.70
2018-02-10T03:11:54.628Z,93.90
2018-02-10T03:14:22.231Z,94.10
2018-02-10T03:16:49.773Z,94.00
2018-02-10T03:19:17.374Z,94.00
2018-02-10T03:21:46.279Z,93.90
2018-02-10T03:24:14.179Z,93.80
2018-02-10T03:26:41.740Z,94.00
2018-02-10T03:29:09.314Z,93.70
2018-02-10T03:31:36.880Z,93.50
2018-02-10T03:34:04.422Z,93.30
2018-02-10T03:36:31.990Z,93.20
2018-02-10T03:38:59.541Z,93.20
2018-02-10T03:41:27.152Z,93.00
2018-02-10T03:43:54.708Z,93.00
2018-02-10T03:46:22.265Z,93.00
2018-02-10T03:48:49.898Z,93.10
2018-02-10T03:51:17.564Z,93.20
2018-02-10T03:53:45.741Z,93.20
2018-02-10T03:56:13.325Z,93.10
2018-02-10T03:58:40.889Z,93.00
2018-02-10T04:01:08.439Z,93.00
2018-02-10T04:03:41.157Z,93.00
2018-02-10T04:06:09.201Z,92.70
2018-02-10T04:08:36.784Z,92.80
2018-02-10T04:11:04.392Z,93.10
2018-02-10T04:13:31.949Z,93.30
2018-02-10T04:15:59.892Z,93.10
2018-02-10T04:18:27.879Z,93.10
2018-02-10T04:20:55.466Z,93.20
2018-02-10T04:23:23.460Z,93.00
2018-02-10T04:25:51.040Z,93.00
2018-02-10T04:28:18.631Z,93.20
2018-02-10T04:30:46.217Z,93.40
2018-02-10T04:33:13.780Z,93.40
2018-02-10T04:35:41.349Z,93.50
2018-02-10T04:38:08.940Z,93.50
2018-02-10T04:40:36.488Z,93.60
2018-02-10T04:43:04.118Z,93.60
2018-02-10T04:45:31.665Z,93.70
2018-02-10T04:47:59.248Z,93.90
2018-02-10T04:50:27.759Z,93.80
2018-02-10T04:52:55.724Z,94.10
2018-02-10T04:55:23.262Z,94.10
2018-02-10T04:57:50.814Z,94.50
2018-02-10T05:00:18.360Z,94.60
2018-02-10T05:02:45.934Z,94.60
2018-02-10T05:05:13.518Z,94.50
2018-02-10T05:07:41.100Z,94.50
2018-02-10T05:10:08.654Z,94.20
2018-02-10T05:12:36.248Z,94.20
2018-02-10T05:15:03.803Z,94.40
2018-02-10T05:17:31.768Z,94.90
2018-02-10T05:19:59.341Z,94.90
2018-02-10T05:22:26.932Z,95.00
2018-02-10T05:24:54.623Z,95.10
2018-02-10T05:27:22.182Z,95.40
2018-02-10T05:29:49.718Z,95.50
2018-02-10T05:32:17.324Z,95.60
2018-02-10T05:34:44.889Z,95.50
2018-02-10T05:37:12.476Z,95.60
2018-02-10T05:39:40.010Z,95.50
2018-02-10T05:42:07.612Z,95.60
2018-02-10T05:44:35.179Z,95.30
2018-02-10T05:47:02.705Z,95.10
2018-02-10T05:49:30.650Z,94.80
2018-02-10T05:51:58.224Z,94.80
2018-02-10T05:54:26.181Z,94.70
2018-02-10T05:56:53.766Z,94.70
2018-02-10T05:59:21.711Z,94.80
2018-02-10T06:01:49.280Z,94.80
2018-02-10T06:04:17.315Z,94.60
2018-02-10T06:06:44.855Z,94.60
2018-02-10T06:09:12.412Z,94.50
2018-02-10T06:11:39.974Z,94.60
2018-02-10T06:14:07.535Z,94.90
2018-02-10T06:16:35.104Z,94.80
2018-02-10T06:19:02.643Z,94.70
2018-02-10T06:21:30.195Z,94.80
2018-02-10T06:23:57.733Z,95.10
2018-02-10T06:26:25.690Z,95.40
2018-02-10T06:28:53.225Z,95.40
2018-02-10T06:31:20.786Z,95.30
2018-02-10T06:33:48.363Z,95.40
2018-02-10T06:36:15.946Z,95.40
2018-02-10T06:38:43.519Z,95.30
2018-02-10T06:41:11.049Z,95.40
2018-02-10T06:43:38.688Z,95.40
2018-02-10T06:46:06.270Z,95.40
2018-02-10T06:48:33.797Z,95.10
2018-02-10T06:51:01.797Z,94.90
2018-02-10T06:53:29.757Z,94.90
2018-02-10T06:55:57.616Z,94.90
2018-02-10T06:58:25.177Z,94.80
2018-02-10T07:00:52.766Z,94.90
2018-02-10T07:03:20.317Z,95.10
2018-02-10T07:05:47.926Z,95.20
2018-02-10T07:08:15.468Z,95.00
2018-02-10T07:10:43.048Z,95.00
2018-02-10T07:13:10.601Z,95.10
2018-02-10T07:15:38.192Z,94.90
2018-02-10T07:18:05.754Z,94.80
2018-02-10T07:20:33.350Z,94.80
2018-02-10T07:23:01.633Z,94.30
2018-02-10T07:25:29.248Z,93.90
2018-02-10T07:27:56.801Z,93.70
2018-02-10T07:30:24.381Z,93.60
2018-02-10T07:32:52.158Z,93.50
2018-02-10T07:35:19.811Z,93.30
2018-02-10T07:37:47.897Z,93.30
2018-02-10T07:40:15.853Z,92.90
2018-02-10T07:42:43.840Z,93.00
2018-02-10T07:45:15.125Z,93.00
2018-02-10T07:47:47.746Z,92.80
2018-02-10T07:50:16.604Z,93.00
2018-02-10T07:52:45.462Z,92.80
2018-02-10T07:55:17.388Z,92.60
2018-02-10T07:57:49.811Z,92.50
2018-02-10T08:02:50.501Z,91.40
2018-02-10T08:05:18.494Z,91.10
2018-02-10T08:07:46.111Z,90.70
2018-02-10T08:10:14.153Z,90.30
2018-02-10T08:12:43.031Z,90.10
2018-02-10T08:15:14.290Z,90.00
2018-02-10T08:17:42.224Z,89.70
2018-02-10T08:20:10.522Z,89.70
2018-02-10T08:22:38.179Z,89.50
2018-02-10T08:25:06.117Z,89.50
2018-02-10T08:27:34.453Z,89.90
2018-02-10T08:30:02.024Z,90.00
2018-02-10T08:32:29.604Z,90.10
2018-02-10T08:34:57.326Z,90.00
2018-02-10T08:37:24.873Z,89.80
2018-02-10T08:39:52.424Z,89.70
2018-02-10T08:42:19.998Z,89.70
2018-02-10T08:44:47.560Z,89.50
2018-02-10T08:47:15.093Z,89.40
2018-02-10T08:49:43.075Z,89.20
2018-02-10T08:52:10.654Z,89.20
2018-02-10T08:54:38.211Z,89.30
2018-02-10T08:57:05.773Z,89.80
2018-02-10T08:59:33.331Z,89.30
2018-02-10T09:02:00.931Z,89.30
2018-02-10T09:04:28.508Z,88.80
2018-02-10T09:06:56.065Z,88.40
2018-02-10T09:09:24.006Z,87.80
2018-02-10T09:11:51.577Z,87.80
2018-02-10T09:14:20.167Z,85.80
2018-02-10T09:16:47.804Z,85.80
2018-02-10T09:19:15.412Z,85.90
2018-02-10T09:21:43.014Z,86.00
2018-02-10T09:24:10.567Z,85.90
2018-02-10T09:26:38.218Z,86.00
2018-02-10T09:29:05.787Z,86.90
2018-02-10T09:31:33.621Z,86.70
2018-02-10T09:34:01.586Z,85.80
2018-02-10T09:36:29.581Z,85.70
2018-02-10T09:38:57.108Z,85.70
2018-02-10T09:41:24.716Z,84.80
2018-02-10T09:43:52.281Z,85.20
2018-02-10T09:46:19.963Z,83.50
2018-02-10T09:48:47.565Z,82.30
2018-02-10T09:51:15.522Z,81.80
2018-02-10T09:53:43.478Z,81.70
2018-02-10T09:56:11.060Z,81.70
2018-02-10T09:58:38.676Z,81.00
2018-02-10T10:01:06.207Z,81.00
2018-02-10T10:03:33.786Z,80.70
2018-02-10T10:06:01.324Z,80.30
2018-02-10T10:08:30.714Z,80.10
2018-02-10T10:10:58.290Z,80.10
2018-02-10T10:13:25.813Z,80.50
2018-02-10T10:15:53.381Z,81.10
2018-02-10T10:18:20.952Z,80.40
2018-02-10T10:20:48.520Z,80.00
2018-02-10T10:23:16.101Z,80.50
2018-02-10T10:25:44.605Z,80.10
2018-02-10T10:28:12.186Z,79.80
2018-02-10T10:30:40.130Z,79.10
2018-02-10T10:33:07.712Z,79.10
2018-02-10T10:35:35.649Z,78.90
2018-02-10T10:38:03.201Z,78.90
2018-02-10T10:40:30.836Z,78.60
2018-02-10T10:42:58.387Z,78.40
2018-02-10T10:45:25.930Z,79.00
2018-02-10T10:47:53.478Z,78.30
2018-02-10T10:50:21.487Z,79.30
2018-02-10T11:04:53.130Z,79.20
2018-02-10T11:07:20.684Z,79.50
2018-02-10T11:09:48.252Z,78.30
2018-02-10T11:12:15.805Z,76.80
2018-02-10T11:14:43.429Z,76.80
2018-02-10T11:17:11.606Z,76.20
2018-02-10T11:19:39.183Z,75.80
2018-02-10T11:22:06.775Z,75.10
2018-02-10T11:24:34.316Z,73.00
2018-02-10T11:27:01.866Z,71.50
2018-02-10T11:29:29.419Z,70.10
2018-02-10T11:31:57.052Z,71.10
2018-02-10T11:34:25.014Z,72.80
2018-02-10T11:36:52.581Z,72.80
2018-02-10T11:39:20.531Z,73.10
2018-02-10T11:41:48.085Z,73.10
2018-02-10T11:44:15.690Z,73.40
2018-02-10T11:46:43.309Z,73.90
2018-02-10T11:49:10.901Z,73.40
2018-02-10T11:51:38.877Z,73.30
2018-02-10T11:54:06.422Z,73.30
2018-02-10T11:56:34.455Z,73.30
2018-02-10T11:59:02.753Z,73.30
2018-02-10T12:01:30.306Z,75.60
2018-02-10T12:03:57.926Z,75.40
2018-02-10T12:06:25.513Z,75.60
2018-02-10T12:08:53.154Z,76.70
2018-02-10T12:11:20.818Z,76.90
2018-02-10T12:13:48.358Z,76.60
2018-02-10T12:16:16.031Z,76.80
2018-02-10T12:18:43.585Z,76.20
2018-02-10T12:21:11.202Z,76.80
2018-02-10T12:23:38.840Z,77.40
2018-02-10T12:26:06.554Z,78.70
2018-02-10T12:28:39.450Z,79.40
2018-02-10T12:31:07.067Z,78.50
2018-02-10T12:33:34.620Z,78.30
2018-02-10T12:36:02.223Z,78.50
2018-02-10T12:38:29.781Z,79.00
2018-02-10T12:40:57.381Z,79.10
2018-02-10T12:43:24.968Z,79.50
2018-02-10T12:45:52.548Z,79.60
2018-02-10T12:51:29.973Z,80.50
2018-02-10T12:53:57.562Z,80.00
2018-02-10T12:56:25.305Z,79.80
2018-02-10T12:58:52.971Z,80.00
2018-02-10T13:01:20.640Z,79.80
2018-02-10T13:03:48.206Z,80.40
2018-02-10T13:06:15.831Z,80.70
2018-02-10T13:08:43.394Z,80.30
2018-02-10T13:11:11.340Z,80.60
2018-02-10T13:13:39.346Z,80.40
2018-02-10T13:16:06.915Z,80.50
2018-02-10T13:18:34.469Z,79.40
2018-02-10T13:21:02.096Z,79.00
2018-02-10T13:23:29.697Z,79.30
2018-02-10T13:25:57.301Z,79.00
2018-02-10T13:28:24.877Z,78.40
2018-02-10T13:30:52.901Z,77.80
2018-02-10T13:33:20.455Z,77.80
2018-02-10T13:35:48.021Z,77.70
2018-02-10T13:38:15.603Z,78.10
2018-02-10T13:40:43.208Z,77.60
2018-02-10T13:43:10.805Z,77.30
2018-02-10T13:45:38.356Z,77.10
2018-02-10T13:48:05.988Z,77.10
2018-02-10T13:50:33.504Z,76.70
2018-02-10T13:53:01.089Z,76.70
2018-02-10T13:55:28.629Z,76.20
2018-02-10T13:57:56.264Z,76.70
2018-02-10T14:00:23.773Z,75.10
2018-02-10T14:02:51.333Z,74.80
2018-02-10T14:05:18.938Z,74.30
2018-02-10T14:07:46.527Z,74.60
2018-02-10T14:10:14.100Z,74.90
2018-02-10T14:12:42.081Z,74.70
2018-02-10T14:15:09.674Z,74.70
2018-02-10T14:17:37.267Z,76.30
2018-02-10T14:20:04.917Z,76.20
2018-02-10T14:22:32.493Z,77.10
2018-02-10T14:25:00.044Z,76.80
2018-02-10T14:27:27.637Z,76.40
2018-02-10T14:29:55.897Z,76.60
2018-02-10T14:32:23.856Z,77.40
2018-02-10T14:34:51.421Z,77.40
2018-02-10T14:37:19.029Z,76.80
2018-02-10T14:39:46.616Z,76.90
2018-02-10T14:42:14.182Z,77.10
2018-02-10T14:44:41.800Z,77.30
2018-02-10T14:47:09.351Z,77.30
2018-02-10T14:49:37.031Z,76.70
2018-02-10T14:52:04.602Z,76.40
2018-02-10T14:54:32.197Z,75.90
2018-02-10T14:56:59.760Z,76.10
2018-02-10T14:59:28.355Z,76.50
2018-02-10T15:01:55.948Z,76.50
2018-02-10T15:04:23.566Z,76.80
2018-02-10T15:06:51.135Z,76.30
2018-02-10T15:09:19.160Z,76.00
2018-02-10T15:11:46.717Z,76.10
2018-02-10T15:14:16.837Z,75.80
2018-02-10T15:16:44.389Z,75.70
2018-02-10T15:19:11.972Z,75.80
2018-02-10T15:21:39.646Z,76.30
2018-02-10T15:24:08.520Z,76.70
2018-02-10T15:26:36.212Z,76.70
2018-02-10T15:29:03.815Z,76.90
2018-02-10T15:31:43.383Z,77.30
2018-02-10T15:34:22.882Z,78.20
2018-02-10T15:36:50.450Z,78.20
2018-02-10T15:39:20.581Z,78.30
2018-02-10T15:41:48.173Z,78.70
2018-02-10T15:44:15.747Z,79.60
2018-02-10T15:46:43.337Z,78.80
2018-02-10T15:49:10.891Z,79.20
2018-02-10T15:51:38.510Z,78.60
2018-02-10T15:54:06.082Z,78.70
2018-02-10T15:56:33.649Z,78.50
2018-02-10T15:59:01.224Z,78.90
2018-02-10T16:01:29.219Z,79.30
2018-02-10T16:03:56.789Z,79.30
2018-02-10T16:06:24.361Z,79.70
2018-02-10T16:08:51.982Z,80.60
2018-02-10T16:11:19.537Z,81.00
2018-02-10T16:13:47.101Z,81.10
2018-02-10T16:16:14.666Z,81.20
2018-02-10T16:18:42.287Z,80.30
2018-02-10T16:21:09.879Z,80.40
2018-02-10T16:23:37.825Z,80.60
2018-02-10T16:26:05.369Z,80.60
2018-02-10T16:28:32.957Z,80.90
2018-02-10T16:31:01.447Z,80.90
2018-02-10T16:33:29.022Z,80.90
2018-02-10T16:35:56.609Z,81.70
2018-02-10T16:38:24.197Z,82.30
2018-02-10T16:40:51.788Z,82.40
2018-02-10T16:43:19.329Z,83.00
2018-02-10T16:45:47.468Z,83.50
2018-02-10T16:48:15.049Z,83.50
2018-02-10T16:50:42.614Z,83.60
2018-02-10T16:53:10.559Z,83.60
2018-02-10T16:55:38.120Z,83.60
2018-02-10T16:58:05.682Z,83.90
2018-02-10T17:00:33.249Z,84.30
2018-02-10T17:03:00.832Z,84.60
2018-02-10T17:05:28.804Z,84.90
2018-02-10T17:07:56.363Z,84.90
2018-02-10T17:10:23.918Z,85.00
2018-02-10T17:12:51.874Z,85.00
2018-02-10T17:15:19.884Z,85.10
2018-02-10T17:17:47.439Z,85.10
2018-02-10T17:20:15.013Z,85.30
2018-02-10T17:22:42.594Z,85.40
2018-02-10T17:25:10.179Z,85.60
2018-02-10T17:27:38.149Z,86.00
2018-02-10T17:30:06.111Z,86.00
2018-02-10T17:32:33.733Z,86.00
2018-02-10T18:02:36.088Z,85.50
2018-02-10T18:05:08.725Z,86.00
2018-02-10T18:07:38.613Z,86.40
2018-02-10T18:10:06.343Z,86.40
2018-02-10T18:18:26.309Z,86.30
2018-02-10T18:21:02.933Z,86.90
2018-02-10T18:23:39.225Z,86.80
2018-02-10T18:58:56.768Z,87.10
2018-02-10T19:01:44.861Z,87.90
2018-02-10T19:04:19.884Z,87.90
2018-02-10T19:06:50.713Z,87.60
2018-02-10T19:09:26.306Z,87.20
2018-02-10T19:51:10.251Z,88.40
2018-02-10T19:53:47.560Z,88.40
2018-02-10T19:56:29.906Z,88.30
2018-02-10T19:58:58.796Z,88.30
2018-02-10T20:01:26.541Z,88.40
2018-02-10T20:03:55.620Z,88.50
2018-02-10T20:06:25.049Z,88.40
2018-02-10T20:08:52.813Z,88.30
2018-02-10T20:11:22.098Z,88.60
2018-02-10T20:13:50.222Z,88.70
2018-02-10T20:16:22.928Z,88.70
2018-02-10T20:18:50.954Z,88.60
2018-02-10T20:21:18.629Z,88.60
2018-02-10T20:23:50.688Z,88.70
2018-02-10T20:26:19.685Z,88.70
2018-02-10T20:28:49.491Z,88.80
2018-02-10T20:31:17.095Z,88.80
2018-02-10T20:33:45.105Z,89.10
2018-02-10T20:36:13.533Z,89.10
2018-02-10T20:38:41.556Z,88.90
2018-02-10T20:41:09.127Z,88.90
2018-02-10T20:43:36.814Z,89.10
2018-02-10T20:46:04.846Z,88.90
2018-02-10T20:48:32.493Z,88.90
2018-02-10T20:51:00.163Z,88.80
2018-02-10T20:53:27.765Z,88.50
2018-02-10T20:55:55.463Z,88.40
2018-02-10T20:58:25.661Z,88.40
2018-02-10T21:00:53.669Z,88.60
2018-02-10T21:03:21.246Z,88.60
2018-02-10T21:05:50.285Z,88.80
2018-02-10T21:08:18.430Z,89.30
2018-02-10T21:10:51.862Z,89.30
2018-02-10T21:13:19.878Z,89.40
2018-02-10T21:15:48.259Z,89.40
2018-02-10T21:18:15.999Z,89.20
2018-02-10T21:20:43.625Z,89.40
2018-02-10T21:23:11.191Z,89.60
2018-02-10T21:25:39.260Z,89.40
2018-02-10T21:28:06.996Z,89.40
2018-02-10T21:30:34.612Z,89.40
2018-02-10T21:33:02.500Z,89.10
2018-02-10T21:35:30.106Z,89.10
2018-02-10T21:37:57.749Z,89.20
2018-02-10T21:40:25.892Z,89.30
2018-02-10T21:42:53.560Z,89.20
2018-02-10T21:45:21.145Z,89.20
2018-02-10T21:47:48.774Z,89.40
2018-02-10T21:50:16.337Z,89.10
2018-02-10T21:52:44.074Z,89.20
2018-02-10T21:55:11.681Z,89.10
2018-02-10T21:57:39.241Z,88.90
2018-02-10T22:00:06.966Z,88.70
2018-02-10T22:02:34.565Z,88.70
2018-02-10T22:05:02.108Z,88.40
2018-02-10T22:07:29.863Z,88.40
2018-02-10T22:09:57.532Z,88.20
2018-02-10T22:12:26.214Z,87.80
2018-02-10T22:14:53.781Z,87.80
2018-02-10T22:17:21.369Z,87.70
2018-02-10T22:19:49.319Z,87.90
2018-02-10T22:22:16.900Z,87.90
2018-02-10T22:24:44.456Z,87.70
2018-02-10T22:27:12.055Z,87.40
2018-02-10T22:29:39.669Z,87.10
2018-02-10T22:32:07.328Z,87.70
2018-02-10T22:34:34.971Z,87.90
2018-02-10T22:37:02.566Z,88.30
2018-02-10T22:39:30.242Z,87.70
2018-02-10T22:41:57.876Z,87.00
2018-02-10T22:44:25.405Z,86.80
2018-02-10T22:46:52.988Z,86.80
2018-02-10T22:49:20.572Z,86.70
2018-02-10T22:51:48.209Z,87.00
2018-02-10T22:54:16.567Z,87.40
2018-02-10T22:57:07.553Z,88.00
2018-02-10T22:59:35.248Z,88.50
2018-02-10T23:02:02.892Z,89.00
2018-02-10T23:04:30.514Z,88.70
2018-02-10T23:06:58.519Z,89.00
2018-02-10T23:09:26.262Z,89.00
2018-02-10T23:11:53.882Z,88.60
2018-02-10T23:14:21.583Z,88.40
2018-02-10T23:16:49.204Z,88.50
2018-02-10T23:19:16.922Z,88.50
2018-02-10T23:21:44.511Z,88.10
2018-02-10T23:24:12.139Z,87.70
2018-02-10T23:26:39.797Z,87.50
2018-02-10T23:29:07.387Z,87.50
2018-02-10T23:31:35.674Z,87.80
2018-02-10T23:34:03.506Z,87.10
2018-02-10T23:36:31.200Z,86.60
2018-02-10T23:38:58.817Z,86.40
2018-02-10T23:41:26.635Z,86.50
2018-02-10T23:43:54.173Z,86.20
2018-02-10T23:46:21.754Z,86.60
2018-02-10T23:48:49.321Z,86.90
2018-02-10T23:51:16.922Z,87.10
2018-02-10T23:53:44.467Z,87.20
2018-02-10T23:56:12.075Z,87.40
2018-02-10T23:58:39.668Z,87.50
